Time;durP1;ratioP1;P1;durP2;ratioP2;P2;SDS_P1;SDS_P2;PMS_P1;PMS_P2;Temp;Humidity;BMP_temperature;BMP_pressure;BME280_temperature;BME280_humidity;BME280_pressure;Samples;Min_cycle;Max_cycle;Signal;HPM_P1;HPM_P2
2021/09/10 00:00:32;;;;;;;13.27;9.40;;;20.50;99.90;;;;;;5156920;27;20479;-56
2021/09/10 00:02:58;;;;;;;10.87;9.70;;;20.50;99.90;;;;;;5156547;27;20935;-55
2021/09/10 00:05:25;;;;;;;10.60;9.13;;;20.50;99.90;;;;;;5156509;27;20923;-54
2021/09/10 00:07:51;;;;;;;12.77;8.77;;;20.40;99.90;;;;;;5156789;27;20476;-51
2021/09/10 00:10:18;;;;;;;12.40;9.60;;;20.40;99.90;;;;;;5156542;27;20511;-55
2021/09/10 00:12:46;;;;;;;11.30;9.33;;;20.40;99.90;;;;;;5156738;27;20431;-54
2021/09/10 00:15:13;;;;;;;10.93;8.87;;;20.40;99.90;;;;;;5156493;27;20487;-56
2021/09/10 00:17:39;;;;;;;12.23;9.60;;;20.30;99.90;;;;;;5156415;27;20526;-54
2021/09/10 00:20:07;;;;;;;11.30;10.10;;;20.30;99.90;;;;;;5156699;27;20815;-54
2021/09/10 00:22:34;;;;;;;10.73;8.87;;;20.30;99.90;;;;;;5156437;27;20446;-52
2021/09/10 00:25:00;;;;;;;10.20;9.10;;;20.40;99.90;;;;;;5156588;27;20439;-52
2021/09/10 00:27:27;;;;;;;10.53;9.43;;;20.40;99.90;;;;;;5156356;27;20439;-56
2021/09/10 00:29:55;;;;;;;11.60;8.90;;;20.30;99.90;;;;;;5156161;27;20478;-55
2021/09/10 00:32:22;;;;;;;10.90;9.80;;;20.30;99.90;;;;;;5156238;27;20452;-54
2021/09/10 00:34:49;;;;;;;10.70;9.20;;;20.30;99.90;;;;;;5156232;27;20891;-56
2021/09/10 00:37:15;;;;;;;9.83;8.60;;;20.40;99.90;;;;;;5156028;27;20531;-52
2021/09/10 00:39:42;;;;;;;11.10;9.43;;;20.40;99.90;;;;;;5156282;27;20511;-55
2021/09/10 00:42:09;;;;;;;9.20;8.27;;;20.40;99.90;;;;;;5155998;27;20990;-56
2021/09/10 00:44:35;;;;;;;9.93;8.57;;;20.40;99.90;;;;;;5155996;27;20480;-54
2021/09/10 00:47:04;;;;;;;9.70;8.70;;;20.40;99.90;;;;;;5155898;27;20507;-54
2021/09/10 00:49:31;;;;;;;11.00;8.67;;;20.30;99.90;;;;;;5156263;27;20479;-56
2021/09/10 00:51:58;;;;;;;12.43;9.13;;;20.30;99.90;;;;;;5156077;27;20446;-56
2021/09/10 00:54:25;;;;;;;10.00;8.83;;;20.30;99.90;;;;;;5156326;27;20530;-56
2021/09/10 00:56:51;;;;;;;9.83;8.73;;;20.20;99.90;;;;;;5156021;27;20506;-56
2021/09/10 00:59:20;;;;;;;11.27;9.03;;;20.20;99.90;;;;;;5156093;27;20461;-55
2021/09/10 01:01:47;;;;;;;9.60;8.60;;;20.20;99.90;;;;;;5155874;27;20931;-55
2021/09/10 01:04:15;;;;;;;10.13;8.83;;;20.20;99.90;;;;;;5156230;27;20439;-56
2021/09/10 01:06:43;;;;;;;10.80;9.10;;;20.10;99.90;;;;;;5156054;27;20883;-54
2021/09/10 01:09:10;;;;;;;12.23;10.20;;;20.10;99.90;;;;;;5155794;27;20478;-56
2021/09/10 01:11:37;;;;;;;13.07;9.30;;;20.10;99.90;;;;;;5156058;27;20523;-56
2021/09/10 01:14:04;;;;;;;13.03;10.30;;;20.10;99.90;;;;;;5155667;27;20499;-56
2021/09/10 01:16:31;;;;;;;10.70;9.60;;;20.10;99.90;;;;;;5155917;27;20495;-57
2021/09/10 01:18:58;;;;;;;9.50;8.50;;;20.10;99.90;;;;;;5156528;27;20434;-52
2021/09/10 01:21:26;;;;;;;9.80;8.33;;;20.10;99.90;;;;;;5155907;27;20434;-56
2021/09/10 01:23:53;;;;;;;11.70;8.67;;;20.10;99.90;;;;;;5156065;27;20768;-56
2021/09/10 01:26:21;;;;;;;14.20;8.73;;;20.00;99.90;;;;;;5155544;27;20938;-56
2021/09/10 01:28:49;;;;;;;13.33;8.90;;;20.00;99.90;;;;;;5155867;27;20925;-56
2021/09/10 01:31:15;;;;;;;9.67;8.60;;;20.00;99.90;;;;;;5155866;27;20882;-50
2021/09/10 01:33:42;;;;;;;10.20;9.27;;;20.00;99.90;;;;;;5155694;27;20476;-57
2021/09/10 01:36:14;;;;;;;11.60;8.90;;;20.00;99.90;;;;;;5155340;27;20966;-52
2021/09/10 01:38:41;;;;;;;10.30;9.30;;;20.00;99.90;;;;;;5155662;27;20439;-57
2021/09/10 01:41:07;;;;;;;12.70;11.37;;;19.90;99.90;;;;;;5155282;27;20450;-52
2021/09/10 01:43:35;;;;;;;13.97;10.10;;;19.90;99.90;;;;;;5155579;27;20455;-54
2021/09/10 01:46:02;;;;;;;13.33;9.47;;;19.90;99.90;;;;;;5142763;27;20440;-54
2021/09/10 01:48:29;;;;;;;15.20;10.00;;;19.90;99.90;;;;;;5134731;28;20443;-53
2021/09/10 01:50:55;;;;;;;9.73;8.67;;;19.90;99.90;;;;;;5134936;28;20508;-55
2021/09/10 01:53:22;;;;;;;13.03;8.13;;;19.80;99.90;;;;;;5136754;27;20504;-54
2021/09/10 01:55:49;;;;;;;13.37;9.87;;;19.90;99.90;;;;;;5138374;27;20439;-54
2021/09/10 01:58:15;;;;;;;10.00;8.63;;;19.90;99.90;;;;;;5138535;27;20451;-54
2021/09/10 02:00:43;;;;;;;10.40;8.43;;;19.80;99.90;;;;;;5138705;27;20823;-49
2021/09/10 02:03:11;;;;;;;9.80;8.80;;;19.80;99.90;;;;;;5138422;27;20504;-56
2021/09/10 02:05:38;;;;;;;16.80;10.67;;;19.80;99.90;;;;;;5138802;27;20454;-51
2021/09/10 02:08:05;;;;;;;9.70;8.70;;;19.80;99.90;;;;;;5138265;27;20462;-56
2021/09/10 02:10:31;;;;;;;11.90;10.00;;;19.80;99.90;;;;;;5138362;27;20838;-50
2021/09/10 02:12:58;;;;;;;15.43;9.80;;;19.80;99.90;;;;;;5137689;27;20575;-56
2021/09/10 02:15:25;;;;;;;12.60;9.20;;;19.70;99.90;;;;;;5136044;27;20435;-51
2021/09/10 02:17:53;;;;;;;10.93;9.43;;;19.70;99.90;;;;;;5137617;27;20830;-54
2021/09/10 02:20:19;;;;;;;10.13;9.10;;;19.70;99.90;;;;;;5135869;27;20440;-52
2021/09/10 02:22:46;;;;;;;11.10;9.83;;;19.70;99.90;;;;;;5136027;27;20737;-55
2021/09/10 02:25:13;;;;;;;12.27;10.27;;;19.70;99.90;;;;;;5135912;27;20452;-55
2021/09/10 02:27:39;;;;;;;11.67;8.47;;;19.70;99.90;;;;;;5136231;27;20444;-55
2021/09/10 02:30:07;;;;;;;12.70;10.37;;;19.60;99.90;;;;;;5135768;27;20483;-56
2021/09/10 02:32:34;;;;;;;15.53;10.50;;;19.60;99.90;;;;;;5136081;27;20473;-56
2021/09/10 02:35:02;;;;;;;10.10;9.10;;;19.60;99.90;;;;;;5136784;27;20439;-54
2021/09/10 02:37:29;;;;;;;11.60;9.60;;;19.60;99.90;;;;;;5137384;27;20475;-54
2021/09/10 02:39:55;;;;;;;14.60;9.77;;;19.60;99.90;;;;;;5137495;27;20465;-56
2021/09/10 02:42:22;;;;;;;11.93;9.93;;;19.60;99.90;;;;;;5137330;27;20452;-56
2021/09/10 02:44:49;;;;;;;10.30;9.30;;;19.60;99.90;;;;;;5137315;27;20448;-56
2021/09/10 02:47:16;;;;;;;10.73;9.57;;;19.60;99.90;;;;;;5137559;27;20447;-50
2021/09/10 02:49:43;;;;;;;15.60;10.60;;;19.50;99.90;;;;;;5137376;27;20483;-56
2021/09/10 02:52:10;;;;;;;19.30;9.23;;;19.50;99.90;;;;;;5137332;27;20463;-56
2021/09/10 02:54:37;;;;;;;13.50;9.80;;;19.50;99.90;;;;;;5137210;27;20444;-56
2021/09/10 02:57:04;;;;;;;11.70;10.37;;;19.50;99.90;;;;;;5137119;27;20443;-53
2021/09/10 02:59:31;;;;;;;13.63;10.87;;;19.50;99.90;;;;;;5137072;27;20459;-56
2021/09/10 03:01:57;;;;;;;12.40;10.80;;;19.40;99.90;;;;;;5137056;27;20823;-54
2021/09/10 03:04:24;;;;;;;13.07;9.80;;;19.40;99.90;;;;;;5136875;27;20927;-56
2021/09/10 03:06:51;;;;;;;14.83;10.40;;;19.30;99.90;;;;;;5137277;27;20440;-54
2021/09/10 03:09:18;;;;;;;10.90;9.57;;;19.30;99.90;;;;;;5137051;27;20491;-56
2021/09/10 03:11:45;;;;;;;13.00;10.20;;;19.30;99.90;;;;;;5136822;27;20442;-54
2021/09/10 03:14:12;;;;;;;10.60;9.50;;;19.30;99.90;;;;;;5136833;27;20801;-56
2021/09/10 03:16:38;;;;;;;13.97;10.40;;;19.30;99.90;;;;;;5137121;27;20504;-53
2021/09/10 03:19:05;;;;;;;12.17;10.23;;;19.30;99.90;;;;;;5136724;27;20512;-56
2021/09/10 03:21:32;;;;;;;12.87;11.30;;;19.30;99.90;;;;;;5136786;27;20447;-54
2021/09/10 03:23:58;;;;;;;12.40;11.07;;;19.30;99.90;;;;;;5136727;27;20435;-56
2021/09/10 03:26:26;;;;;;;11.53;10.33;;;19.30;99.90;;;;;;5136639;27;20460;-54
2021/09/10 03:28:53;;;;;;;13.87;11.40;;;19.30;99.90;;;;;;5136649;27;20440;-56
2021/09/10 03:31:20;;;;;;;12.33;9.80;;;19.30;99.90;;;;;;5136026;27;20483;-53
2021/09/10 03:33:46;;;;;;;13.13;11.17;;;19.20;99.90;;;;;;5136605;27;20447;-54
2021/09/10 03:36:13;;;;;;;13.93;10.77;;;19.20;99.90;;;;;;5136146;27;20478;-53
2021/09/10 03:38:40;;;;;;;13.30;10.80;;;19.20;99.90;;;;;;5136281;27;20523;-49
2021/09/10 03:41:07;;;;;;;13.23;10.43;;;19.20;99.90;;;;;;5136350;27;20443;-50
2021/09/10 03:43:35;;;;;;;14.27;11.13;;;19.20;99.90;;;;;;5136187;27;20439;-53
2021/09/10 03:46:02;;;;;;;12.00;10.70;;;19.10;99.90;;;;;;5136238;27;20446;-49
2021/09/10 03:48:29;;;;;;;11.90;10.20;;;19.10;99.90;;;;;;5136272;27;20466;-51
2021/09/10 03:50:55;;;;;;;11.97;10.67;;;19.10;99.90;;;;;;5136196;27;20532;-53
2021/09/10 03:53:22;;;;;;;20.87;10.80;;;19.10;99.90;;;;;;5136035;27;20891;-51
2021/09/10 03:55:49;;;;;;;15.53;10.60;;;19.10;99.90;;;;;;5135974;27;20455;-52
2021/09/10 03:58:16;;;;;;;13.77;10.20;;;19.10;99.90;;;;;;5136154;27;20902;-49
2021/09/10 04:00:44;;;;;;;14.30;11.20;;;19.10;99.90;;;;;;5136312;27;20436;-48
2021/09/10 04:03:10;;;;;;;12.60;11.23;;;19.00;99.90;;;;;;5135868;27;20471;-55
2021/09/10 04:05:39;;;;;;;11.77;10.10;;;19.10;99.90;;;;;;5136276;27;20462;-56
2021/09/10 04:08:05;;;;;;;12.40;10.20;;;19.00;99.90;;;;;;5136142;27;20448;-56
2021/09/10 04:10:32;;;;;;;15.10;10.40;;;19.00;99.90;;;;;;5136110;27;20471;-54
2021/09/10 04:12:59;;;;;;;15.33;10.67;;;19.00;99.90;;;;;;5135526;27;20824;-55
2021/09/10 04:15:26;;;;;;;14.00;11.30;;;18.90;99.90;;;;;;5135291;27;20532;-55
2021/09/10 04:17:54;;;;;;;15.10;10.50;;;18.90;99.90;;;;;;5135922;27;20448;-54
2021/09/10 04:20:21;;;;;;;11.93;10.27;;;18.90;99.90;;;;;;5135737;27;20520;-51
2021/09/10 04:22:48;;;;;;;15.23;11.20;;;18.90;99.90;;;;;;5135841;27;20524;-53
2021/09/10 04:25:14;;;;;;;11.30;10.00;;;18.80;99.90;;;;;;5135591;27;20456;-53
2021/09/10 04:27:41;;;;;;;11.63;10.20;;;18.80;99.90;;;;;;5135731;27;20459;-56
2021/09/10 04:30:10;;;;;;;12.60;11.30;;;18.70;99.90;;;;;;5135634;27;20531;-56
2021/09/10 04:32:38;;;;;;;13.30;10.73;;;18.70;99.90;;;;;;5135531;27;20447;-53
2021/09/10 04:35:08;;;;;;;13.63;10.53;;;18.80;99.90;;;;;;5135559;27;20497;-54
2021/09/10 04:37:35;;;;;;;15.07;11.20;;;18.80;99.90;;;;;;5135243;27;20508;-49
2021/09/10 04:40:01;;;;;;;15.00;10.87;;;18.80;99.90;;;;;;5135316;27;20432;-54
2021/09/10 04:42:28;;;;;;;17.47;11.20;;;18.70;99.90;;;;;;5135686;27;20440;-50
2021/09/10 04:44:55;;;;;;;12.00;10.37;;;18.70;99.90;;;;;;5135438;27;20544;-51
2021/09/10 04:47:22;;;;;;;18.70;11.70;;;18.70;99.90;;;;;;5135608;27;20450;-56
2021/09/10 04:49:48;;;;;;;14.13;11.27;;;18.70;99.90;;;;;;5135313;28;20479;-49
2021/09/10 04:52:16;;;;;;;13.40;11.37;;;18.70;99.90;;;;;;5136538;28;20476;-54
2021/09/10 04:54:43;;;;;;;13.90;10.83;;;18.70;99.90;;;;;;5136557;28;20456;-55
2021/09/10 04:57:10;;;;;;;13.40;12.00;;;18.60;99.90;;;;;;5135933;28;20834;-56
2021/09/10 04:59:36;;;;;;;17.83;11.70;;;18.60;99.90;;;;;;5135265;28;20440;-54
2021/09/10 05:02:03;;;;;;;15.17;11.90;;;18.60;99.90;;;;;;5134462;28;20455;-51
2021/09/10 05:04:30;;;;;;;17.57;10.80;;;18.50;99.90;;;;;;5135496;28;20985;-55
2021/09/10 05:06:57;;;;;;;17.60;11.37;;;18.50;99.90;;;;;;5134717;28;20810;-57
2021/09/10 05:09:25;;;;;;;17.03;13.50;;;18.50;99.90;;;;;;5135465;28;20837;-55
2021/09/10 05:11:51;;;;;;;19.90;12.80;;;18.60;99.90;;;;;;5137054;28;20480;-55
2021/09/10 05:14:18;;;;;;;14.50;12.70;;;18.60;99.90;;;;;;5136471;28;20505;-55
2021/09/10 05:16:45;;;;;;;17.67;10.80;;;18.60;99.90;;;;;;5141942;27;20504;-52
2021/09/10 05:19:12;;;;;;;13.27;11.50;;;18.50;99.90;;;;;;5159503;27;20466;-55
2021/09/10 05:21:39;;;;;;;15.93;13.07;;;18.50;99.90;;;;;;5160054;27;20450;-53
2021/09/10 05:24:06;;;;;;;21.63;13.40;;;18.50;99.90;;;;;;5159296;27;20475;-55
2021/09/10 05:26:35;;;;;;;16.10;12.87;;;18.50;99.90;;;;;;5159758;27;20495;-55
2021/09/10 05:29:01;;;;;;;12.47;10.80;;;18.50;99.90;;;;;;5163074;27;20533;-56
2021/09/10 05:31:28;;;;;;;17.10;12.20;;;18.60;99.90;;;;;;5163648;27;20474;-53
2021/09/10 05:33:55;;;;;;;17.17;12.90;;;18.70;99.90;;;;;;5165382;27;20447;-55
2021/09/10 05:36:22;;;;;;;15.87;13.00;;;18.70;99.90;;;;;;5163304;27;20474;-55
2021/09/10 05:38:48;;;;;;;13.50;11.30;;;18.80;99.90;;;;;;5160045;27;20454;-53
2021/09/10 05:41:15;;;;;;;13.40;11.97;;;18.90;99.90;;;;;;5142656;27;20469;-55
2021/09/10 05:43:43;;;;;;;16.70;12.43;;;19.00;99.90;;;;;;5142381;27;20443;-56
2021/09/10 05:46:10;;;;;;;18.27;12.87;;;19.10;99.90;;;;;;5142415;27;20515;-49
2021/09/10 05:48:37;;;;;;;17.13;11.67;;;19.10;99.90;;;;;;5140843;27;20439;-55
2021/09/10 05:51:04;;;;;;;15.23;12.63;;;19.10;99.90;;;;;;5142539;27;20500;-51
2021/09/10 05:53:31;;;;;;;16.10;12.83;;;19.10;99.90;;;;;;5142774;27;20526;-56
2021/09/10 05:55:57;;;;;;;14.53;12.50;;;19.10;99.90;;;;;;5142402;27;21095;-48
2021/09/10 05:58:24;;;;;;;20.63;14.47;;;19.10;99.90;;;;;;5142470;27;20512;-49
2021/09/10 06:00:52;;;;;;;16.40;13.70;;;19.20;99.90;;;;;;5142207;27;20971;-53
2021/09/10 06:03:19;;;;;;;21.43;14.57;;;19.20;99.90;;;;;;5141776;27;20524;-49
2021/09/10 06:05:45;;;;;;;22.20;14.33;;;19.20;99.90;;;;;;5141802;27;20447;-57
2021/09/10 06:08:12;;;;;;;18.40;13.10;;;19.20;99.90;;;;;;5142103;27;20452;-56
2021/09/10 06:10:40;;;;;;;23.07;14.63;;;19.20;99.90;;;;;;5141480;27;20991;-54
2021/09/10 06:13:07;;;;;;;18.47;14.63;;;19.20;99.90;;;;;;5142514;27;20455;-52
2021/09/10 06:15:34;;;;;;;17.40;14.27;;;19.30;99.90;;;;;;5142101;27;20516;-54
2021/09/10 06:18:02;;;;;;;23.70;15.00;;;19.30;99.90;;;;;;5142100;27;20451;-53
2021/09/10 06:20:29;;;;;;;19.43;13.83;;;19.40;99.90;;;;;;5141366;27;20447;-58
2021/09/10 06:22:55;;;;;;;18.77;14.37;;;19.40;99.90;;;;;;5141175;27;20440;-53
2021/09/10 06:25:24;;;;;;;18.83;14.13;;;19.50;99.90;;;;;;5141160;27;20451;-56
2021/09/10 06:27:52;;;;;;;16.13;14.40;;;19.50;99.90;;;;;;5141254;27;20566;-57
2021/09/10 06:30:20;;;;;;;20.90;15.20;;;19.60;99.90;;;;;;5141450;27;20482;-56
2021/09/10 06:32:47;;;;;;;21.40;13.40;;;19.60;99.90;;;;;;5141473;27;20896;-48
2021/09/10 06:35:15;;;;;;;17.03;14.20;;;19.70;99.90;;;;;;5141571;27;20451;-50
2021/09/10 06:37:41;;;;;;;19.23;13.50;;;19.80;99.90;;;;;;5141442;27;20504;-57
2021/09/10 06:40:09;;;;;;;15.03;13.37;;;19.80;99.90;;;;;;5141470;27;20452;-55
2021/09/10 06:42:36;;;;;;;15.60;13.27;;;19.90;99.90;;;;;;5141172;27;20455;-53
2021/09/10 06:45:03;;;;;;;15.47;12.60;;;20.00;99.90;;;;;;5141498;27;20470;-54
2021/09/10 06:47:29;;;;;;;17.53;14.60;;;20.10;99.90;;;;;;5140983;27;20478;-55
2021/09/10 06:49:56;;;;;;;14.83;12.53;;;20.10;99.90;;;;;;5141295;27;20525;-56
2021/09/10 06:52:24;;;;;;;15.43;13.80;;;20.20;99.90;;;;;;5140973;27;20479;-54
2021/09/10 06:54:51;;;;;;;15.60;12.50;;;20.30;99.90;;;;;;5141309;27;20789;-53
2021/09/10 06:57:17;;;;;;;15.83;13.70;;;20.40;99.90;;;;;;5141075;27;20428;-56
2021/09/10 06:59:44;;;;;;;16.47;14.37;;;20.40;99.90;;;;;;5140819;27;20456;-55
2021/09/10 07:02:10;;;;;;;20.23;15.47;;;20.50;99.90;;;;;;5140756;27;20812;-54
2021/09/10 07:04:37;;;;;;;19.70;14.27;;;20.60;99.90;;;;;;5140642;27;20448;-53
2021/09/10 07:07:04;;;;;;;17.53;14.13;;;20.70;99.90;;;;;;5140861;27;20447;-56
2021/09/10 07:09:34;;;;;;;16.30;13.50;;;20.70;99.90;;;;;;5140496;27;20469;-56
2021/09/10 07:12:03;;;;;;;23.80;15.97;;;20.80;99.90;;;;;;5140085;27;20475;-55
2021/09/10 07:14:30;;;;;;;24.83;14.47;;;20.80;99.90;;;;;;5139998;27;20448;-56
2021/09/10 07:16:56;;;;;;;21.60;14.10;;;21.00;99.90;;;;;;5140500;27;20544;-54
2021/09/10 07:19:23;;;;;;;18.07;13.33;;;21.10;99.90;;;;;;5139810;27;20435;-54
2021/09/10 07:21:50;;;;;;;19.77;13.70;;;21.20;99.90;;;;;;5140322;27;20449;-55
2021/09/10 07:24:16;;;;;;;15.67;14.03;;;21.20;99.90;;;;;;5140218;27;20440;-56
2021/09/10 07:26:44;;;;;;;15.30;13.33;;;21.30;99.90;;;;;;5140453;27;20930;-54
2021/09/10 07:29:15;;;;;;;14.77;12.87;;;21.50;99.90;;;;;;5139823;27;20444;-56
2021/09/10 07:31:42;;;;;;;18.30;13.07;;;21.50;99.90;;;;;;5140026;27;20471;-55
2021/09/10 07:34:09;;;;;;;16.87;14.30;;;21.60;99.90;;;;;;5140278;27;20447;-54
2021/09/10 07:36:36;;;;;;;14.83;13.13;;;21.70;99.90;;;;;;5139402;27;20470;-55
2021/09/10 07:39:03;;;;;;;18.20;14.87;;;21.80;99.90;;;;;;5139932;27;20450;-55
2021/09/10 07:41:29;;;;;;;17.40;14.87;;;22.00;99.90;;;;;;5139335;27;20762;-49
2021/09/10 07:43:58;;;;;;;13.33;11.87;;;22.00;99.90;;;;;;5139593;27;20456;-54
2021/09/10 07:46:25;;;;;;;16.00;12.30;;;22.20;99.90;;;;;;5140082;27;20443;-55
2021/09/10 07:48:52;;;;;;;14.40;12.23;;;22.30;99.90;;;;;;5140050;27;20444;-55
2021/09/10 07:51:19;;;;;;;13.67;11.57;;;22.40;99.90;;;;;;5138692;27;20472;-55
2021/09/10 07:53:45;;;;;;;13.77;12.10;;;22.50;99.90;;;;;;5138832;27;20455;-56
2021/09/10 07:56:12;;;;;;;14.83;12.30;;;22.70;99.90;;;;;;5139037;27;20444;-56
2021/09/10 07:58:39;;;;;;;11.77;10.23;;;22.80;99.90;;;;;;5138945;27;20444;-52
2021/09/10 08:01:07;;;;;;;14.20;11.60;;;22.90;99.90;;;;;;5138853;27;20845;-55
2021/09/10 08:03:34;;;;;;;12.87;9.27;;;23.10;99.90;;;;;;5138820;27;20911;-56
2021/09/10 08:06:01;;;;;;;15.90;11.30;;;23.40;99.90;;;;;;5138726;27;20454;-57
2021/09/10 08:08:28;;;;;;;25.13;16.30;;;23.60;99.90;;;;;;5138741;27;20530;-55
2021/09/10 08:10:55;;;;;;;15.50;13.53;;;23.90;99.90;;;;;;5138445;27;20475;-56
2021/09/10 08:13:22;;;;;;;14.00;11.60;;;24.50;99.90;;;;;;5138299;27;20444;-55
2021/09/10 08:15:49;;;;;;;19.50;16.20;;;25.70;99.90;;;;;;5138007;27;20918;-56
2021/09/10 08:18:17;;;;;;;15.83;10.70;;;27.30;99.90;;;;;;5137883;27;20475;-55
2021/09/10 08:20:44;;;;;;;11.73;10.50;;;29.30;99.90;;;;;;5138226;27;20458;-53
2021/09/10 08:23:11;;;;;;;10.80;9.77;;;30.60;99.90;;;;;;5137195;27;21184;-53
2021/09/10 08:25:37;;;;;;;10.23;8.77;;;31.70;98.90;;;;;;5137247;27;20480;-57
2021/09/10 08:28:05;;;;;;;10.07;8.97;;;32.60;93.90;;;;;;5137949;27;20763;-57
2021/09/10 08:30:32;;;;;;;10.47;9.47;;;33.50;90.60;;;;;;5138227;27;20758;-56
2021/09/10 08:32:59;;;;;;;11.17;8.70;;;34.30;83.80;;;;;;5138252;27;20452;-56
2021/09/10 08:35:27;;;;;;;11.77;9.17;;;35.10;77.40;;;;;;5138104;27;20439;-55
2021/09/10 08:37:57;;;;;;;9.67;8.77;;;35.40;72.40;;;;;;5137829;27;20862;-58
2021/09/10 08:40:24;;;;;;;14.10;11.17;;;35.50;70.30;;;;;;5138016;27;20539;-55
2021/09/10 08:42:51;;;;;;;9.47;7.63;;;36.00;67.80;;;;;;5138374;27;20785;-53
2021/09/10 08:45:19;;;;;;;8.23;7.40;;;36.30;65.20;;;;;;5138037;27;20440;-57
2021/09/10 08:47:46;;;;;;;9.17;8.37;;;36.60;62.60;;;;;;5136785;27;20440;-55
2021/09/10 08:50:13;;;;;;;9.10;8.30;;;36.40;62.10;;;;;;5136495;28;20466;-55
2021/09/10 08:52:41;;;;;;;9.63;8.83;;;36.30;61.60;;;;;;5136451;28;21142;-53
2021/09/10 08:55:09;;;;;;;9.17;8.37;;;36.20;61.70;;;;;;5136656;28;20471;-56
2021/09/10 08:57:44;;;;;;;8.73;7.93;;;36.40;61.30;;;;;;5136932;28;20529;-55
2021/09/10 09:00:12;;;;;;;9.40;8.50;;;36.50;60.60;;;;;;5136770;28;20438;-56
2021/09/10 09:02:39;;;;;;;9.03;8.13;;;36.60;59.90;;;;;;5140015;27;20450;-54
2021/09/10 09:05:07;;;;;;;8.17;7.33;;;36.90;58.80;;;;;;5141216;27;20979;-54
2021/09/10 09:07:34;;;;;;;8.60;7.67;;;37.10;58.40;;;;;;5140964;27;20459;-54
2021/09/10 09:10:03;;;;;;;8.57;7.67;;;37.20;58.10;;;;;;5140739;27;20443;-54
2021/09/10 09:12:31;;;;;;;8.70;7.90;;;37.00;57.40;;;;;;5140598;27;20522;-54
2021/09/10 09:15:00;;;;;;;9.07;7.30;;;37.00;57.30;;;;;;5140786;27;20469;-55
2021/09/10 09:17:29;;;;;;;9.63;7.60;;;37.10;57.20;;;;;;5141143;27;20439;-51
2021/09/10 09:20:18;;;;;;;11.53;7.30;;;37.20;56.90;;;;;;5141295;27;20448;-52
2021/09/10 09:23:00;;;;;;;9.40;7.70;;;37.30;56.70;;;;;;5140736;27;20420;-53
2021/09/10 09:25:31;;;;;;;8.10;7.30;;;37.20;56.30;;;;;;5141163;27;20494;-51
2021/09/10 09:28:17;;;;;;;9.60;8.70;;;37.30;56.20;;;;;;5140672;27;20486;-54
2021/09/10 09:30:45;;;;;;;7.90;7.20;;;37.30;56.20;;;;;;5140044;27;20524;-53
2021/09/10 09:33:14;;;;;;;9.40;7.30;;;37.00;56.30;;;;;;5140005;27;20571;-56
2021/09/10 09:35:41;;;;;;;7.77;7.03;;;37.10;56.70;;;;;;5140228;27;20489;-55
2021/09/10 09:38:17;;;;;;;9.00;6.87;;;37.00;56.60;;;;;;5140805;27;20993;-53
2021/09/10 09:40:46;;;;;;;8.13;7.37;;;37.20;56.20;;;;;;5141020;27;20442;-57
2021/09/10 09:43:16;;;;;;;8.73;7.93;;;37.40;55.90;;;;;;5141175;27;20907;-57
2021/09/10 09:45:45;;;;;;;9.07;8.17;;;37.80;55.30;;;;;;5140924;27;20435;-59
2021/09/10 09:48:12;;;;;;;9.80;7.90;;;38.00;54.80;;;;;;5140700;27;20466;-53
2021/09/10 09:50:40;;;;;;;10.10;8.97;;;38.00;54.50;;;;;;5140959;27;20510;-57
2021/09/10 09:53:07;;;;;;;8.57;7.60;;;37.90;54.60;;;;;;5140061;27;20838;-56
2021/09/10 09:55:35;;;;;;;10.10;9.20;;;37.70;54.70;;;;;;5140907;27;20860;-55
2021/09/10 09:58:06;;;;;;;8.00;7.30;;;37.80;54.60;;;;;;5140022;27;20443;-53
2021/09/10 10:00:34;;;;;;;9.33;7.50;;;37.60;54.70;;;;;;5140675;27;20432;-55
2021/09/10 10:03:02;;;;;;;8.63;7.73;;;37.50;54.70;;;;;;5139510;27;20625;-56
2021/09/10 10:05:29;;;;;;;8.60;7.40;;;37.40;55.10;;;;;;5139442;27;20828;-59
2021/09/10 10:08:01;;;;;;;10.17;7.57;;;37.10;55.30;;;;;;5139342;27;20492;-57
2021/09/10 10:10:32;;;;;;;12.37;7.57;;;37.00;55.50;;;;;;5139254;27;20469;-58
2021/09/10 10:13:01;;;;;;;8.33;7.63;;;37.00;55.90;;;;;;5139079;27;20484;-57
2021/09/10 10:15:30;;;;;;;8.60;7.80;;;37.20;55.80;;;;;;5139235;27;20439;-53
2021/09/10 10:17:58;;;;;;;8.67;7.93;;;37.40;54.90;;;;;;5140024;27;20900;-56
2021/09/10 10:20:51;;;;;;;12.67;11.37;;;37.50;54.80;;;;;;5140021;27;20773;-55
2021/09/10 10:23:55;;;;;;;11.43;7.50;;;37.30;54.90;;;;;;5138824;27;20428;-56
2021/09/10 10:26:36;;;;;;;10.70;7.43;;;37.10;55.90;;;;;;5139222;27;20468;-56
2021/09/10 10:29:09;;;;;;;7.40;6.70;;;36.90;55.80;;;;;;5138758;27;20460;-56
2021/09/10 10:32:12;;;;;;;8.27;7.10;;;36.60;55.60;;;;;;5138754;27;20834;-54
2021/09/10 10:35:26;;;;;;;9.10;7.83;;;36.20;56.10;;;;;;5138585;27;20420;-56
2021/09/10 10:37:55;;;;;;;9.00;8.13;;;36.10;57.20;;;;;;5133039;27;20487;-55
2021/09/10 10:40:34;;;;;;;8.87;8.07;;;35.80;57.20;;;;;;5138731;27;20451;-55
2021/09/10 10:43:04;;;;;;;8.70;7.90;;;35.50;58.00;;;;;;5139344;27;20504;-56
2021/09/10 10:46:05;;;;;;;11.07;10.00;;;35.40;58.00;;;;;;5138570;27;20965;-55
2021/09/10 10:48:51;;;;;;;14.03;12.67;;;35.30;58.50;;;;;;5055184;28;20446;-56
2021/09/10 10:51:44;;;;;;;10.50;8.53;;;34.80;59.80;;;;;;5055114;28;20448;-54
2021/09/10 10:54:15;;;;;;;9.23;8.33;;;34.40;59.90;;;;;;5114685;27;20947;-56
2021/09/10 10:56:46;;;;;;;11.13;7.97;;;33.60;61.80;;;;;;5137696;27;20443;-56
2021/09/10 10:59:32;;;;;;;8.23;7.47;;;32.90;63.60;;;;;;5138256;27;20534;-56
2021/09/10 11:02:32;;;;;;;10.37;8.67;;;32.30;65.50;;;;;;5138165;27;20455;-54
2021/09/10 11:05:01;;;;;;;8.17;7.47;;;32.20;66.60;;;;;;5136198;27;20635;-55
2021/09/10 11:07:31;;;;;;;8.57;7.77;;;32.20;66.60;;;;;;5138335;27;20930;-54
2021/09/10 11:09:59;;;;;;;8.27;7.57;;;32.10;66.50;;;;;;5138229;27;20444;-55
2021/09/10 11:12:26;;;;;;;9.33;7.47;;;32.10;67.20;;;;;;5137956;27;20797;-55
2021/09/10 11:14:54;;;;;;;9.57;7.57;;;32.10;67.00;;;;;;5137599;27;20448;-55
2021/09/10 11:17:26;;;;;;;9.93;8.17;;;31.90;67.70;;;;;;5137683;27;20530;-56
2021/09/10 11:19:54;;;;;;;9.10;8.20;;;31.80;68.60;;;;;;5137881;27;20466;-57
2021/09/10 11:22:21;;;;;;;7.53;6.83;;;31.60;69.10;;;;;;5137609;27;20908;-57
2021/09/10 11:24:50;;;;;;;8.20;7.40;;;31.30;69.60;;;;;;5137413;27;20826;-55
2021/09/10 11:27:26;;;;;;;7.97;7.17;;;31.10;70.50;;;;;;5137459;27;20452;-53
2021/09/10 11:29:53;;;;;;;8.80;8.00;;;31.00;71.50;;;;;;5137736;27;20492;-56
2021/09/10 11:32:22;;;;;;;10.17;6.73;;;30.80;71.40;;;;;;5137703;27;20512;-55
2021/09/10 11:34:48;;;;;;;8.03;7.33;;;30.60;71.40;;;;;;5137428;27;20440;-56
2021/09/10 11:37:24;;;;;;;8.27;7.30;;;30.50;72.50;;;;;;5137767;27;20901;-56
2021/09/10 11:39:53;;;;;;;8.70;7.60;;;30.50;73.60;;;;;;5137544;27;20506;-55
2021/09/10 11:42:33;;;;;;;6.87;6.27;;;30.50;74.00;;;;;;5137348;27;20444;-57
2021/09/10 11:45:09;;;;;;;8.03;6.57;;;30.40;74.00;;;;;;5136935;27;20443;-54
2021/09/10 11:47:36;;;;;;;9.67;7.43;;;30.10;74.20;;;;;;5137304;27;20440;-56
2021/09/10 11:50:06;;;;;;;9.40;8.40;;;30.00;75.10;;;;;;5137450;27;20876;-57
2021/09/10 11:52:34;;;;;;;12.10;7.60;;;30.00;75.20;;;;;;5137850;27;20528;-56
2021/09/10 11:55:13;;;;;;;8.00;7.20;;;30.10;76.30;;;;;;5137596;27;20459;-57
2021/09/10 11:57:41;;;;;;;8.10;7.40;;;30.30;75.20;;;;;;5138026;27;20432;-54
2021/09/10 12:00:10;;;;;;;7.80;7.10;;;30.40;75.20;;;;;;5137760;27;20458;-56
2021/09/10 12:02:39;;;;;;;9.53;7.80;;;30.50;74.70;;;;;;5137603;27;20542;-55
2021/09/10 12:05:06;;;;;;;8.40;7.70;;;30.40;74.60;;;;;;5137345;27;20455;-55
2021/09/10 12:07:35;;;;;;;8.33;7.63;;;30.20;75.20;;;;;;5136932;27;20455;-55
2021/09/10 12:10:02;;;;;;;8.37;7.50;;;30.10;76.90;;;;;;5137097;27;20455;-56
2021/09/10 12:12:30;;;;;;;8.57;7.80;;;30.00;77.60;;;;;;5137360;27;20510;-54
2021/09/10 12:15:02;;;;;;;10.30;8.33;;;29.90;78.00;;;;;;5136733;27;20444;-58
2021/09/10 12:17:36;;;;;;;8.57;7.87;;;29.80;78.40;;;;;;5137430;27;20443;-55
2021/09/10 12:20:09;;;;;;;10.37;9.27;;;29.70;79.60;;;;;;5136818;27;20930;-58
2021/09/10 12:23:01;;;;;;;9.53;8.63;;;29.70;80.00;;;;;;5137299;27;20930;-52
2021/09/10 12:25:31;;;;;;;7.90;7.20;;;29.90;80.10;;;;;;5137337;27;20924;-55
2021/09/10 12:28:16;;;;;;;8.40;7.60;;;30.00;78.30;;;;;;5136947;27;20454;-56
2021/09/10 12:30:45;;;;;;;9.43;8.47;;;29.90;79.00;;;;;;5136762;27;20435;-55
2021/09/10 12:33:14;;;;;;;11.30;8.87;;;29.70;79.80;;;;;;5136402;27;20532;-55
2021/09/10 12:35:41;;;;;;;10.90;8.77;;;29.50;80.70;;;;;;5136418;27;20440;-55
2021/09/10 12:38:09;;;;;;;11.27;9.67;;;29.30;81.60;;;;;;5135834;27;20482;-53
2021/09/10 12:40:39;;;;;;;8.67;7.80;;;29.00;82.80;;;;;;5136416;27;20784;-57
2021/09/10 12:43:09;;;;;;;21.23;11.17;;;28.80;83.90;;;;;;5136416;27;20840;-57